createdAt,value
2023-12-17T00:00:22.091Z,100.00
2023-12-17T00:03:16.514Z,100.00
2023-12-17T00:05:36.487Z,100.00
2023-12-17T00:08:03.499Z,100.00
2023-12-17T00:10:33.291Z,100.00
2023-12-17T00:13:02.782Z,100.00
2023-12-17T00:15:31.933Z,100.00
2023-12-17T00:17:58.989Z,100.00
2023-12-17T00:20:29.081Z,100.00
2023-12-17T00:22:58.911Z,100.00
2023-12-17T00:25:26.016Z,100.00
2023-12-17T00:27:53.067Z,100.00
2023-12-17T00:30:20.374Z,100.00
2023-12-17T00:32:53.188Z,100.00
2023-12-17T00:35:21.673Z,100.00
2023-12-17T00:37:51.150Z,100.00
2023-12-17T00:40:21.398Z,100.00
2023-12-17T00:42:51.372Z,100.00
2023-12-17T00:45:20.664Z,100.00
2023-12-17T00:47:48.116Z,100.00
2023-12-17T00:50:15.454Z,100.00
2023-12-17T00:52:43.327Z,100.00
2023-12-17T00:55:10.579Z,100.00
2023-12-17T00:57:42.621Z,100.00
2023-12-17T01:00:10.689Z,100.00
2023-12-17T01:02:40.248Z,100.00
2023-12-17T01:05:08.502Z,100.00
2023-12-17T01:07:35.475Z,100.00
2023-12-17T01:10:03.542Z,100.00
2023-12-17T01:12:30.583Z,100.00
2023-12-17T01:14:57.729Z,100.00
2023-12-17T01:17:24.700Z,100.00
2023-12-17T01:19:51.898Z,100.00
2023-12-17T01:22:18.898Z,100.00
2023-12-17T01:24:46.033Z,100.00
2023-12-17T01:27:13.076Z,100.00
2023-12-17T01:29:42.325Z,100.00
2023-12-17T01:32:09.483Z,100.00
2023-12-17T01:34:36.564Z,100.00
2023-12-17T01:37:03.819Z,100.00
2023-12-17T01:39:30.957Z,100.00
2023-12-17T01:41:58.035Z,100.00
2023-12-17T01:44:28.038Z,100.00
2023-12-17T01:46:58.104Z,100.00
2023-12-17T01:49:28.504Z,100.00
2023-12-17T01:51:58.157Z,100.00
2023-12-17T01:54:26.129Z,100.00
2023-12-17T01:56:54.320Z,100.00
2023-12-17T01:59:22.104Z,100.00
2023-12-17T02:01:49.763Z,100.00
2023-12-17T02:04:17.272Z,100.00
2023-12-17T02:06:44.446Z,100.00
2023-12-17T02:09:11.857Z,100.00
2023-12-17T02:11:38.777Z,100.00
2023-12-17T02:14:08.185Z,100.00
2023-12-17T02:16:35.227Z,100.00
2023-12-17T02:19:04.714Z,100.00
2023-12-17T02:21:37.477Z,100.00
2023-12-17T02:24:07.336Z,100.00
2023-12-17T02:26:38.058Z,100.00
2023-12-17T02:29:05.155Z,100.00
2023-12-17T02:31:32.132Z,100.00
2023-12-17T02:34:01.423Z,100.00
2023-12-17T02:36:30.656Z,100.00
2023-12-17T02:38:57.922Z,100.00
2023-12-17T02:41:24.912Z,100.00
2023-12-17T02:43:56.421Z,100.00
2023-12-17T02:46:23.444Z,100.00
2023-12-17T02:48:52.751Z,100.00
2023-12-17T02:51:22.402Z,100.00
2023-12-17T02:53:49.531Z,100.00
2023-12-17T02:56:16.902Z,100.00
2023-12-17T02:58:46.959Z,100.00
2023-12-17T03:01:14.030Z,100.00
2023-12-17T03:03:41.202Z,100.00
2023-12-17T03:06:10.826Z,100.00
2023-12-17T03:08:39.647Z,100.00
2023-12-17T03:11:06.686Z,100.00
2023-12-17T03:13:33.751Z,100.00
2023-12-17T03:16:00.649Z,100.00
2023-12-17T03:18:27.860Z,100.00
2023-12-17T03:20:54.836Z,100.00
2023-12-17T03:23:22.019Z,100.00
2023-12-17T03:25:54.058Z,100.00
2023-12-17T03:28:21.058Z,100.00
2023-12-17T03:30:48.262Z,100.00
2023-12-17T03:33:15.678Z,100.00
2023-12-17T03:35:42.640Z,100.00
2023-12-17T03:38:12.346Z,100.00
2023-12-17T03:40:39.372Z,100.00
2023-12-17T03:43:09.395Z,100.00
2023-12-17T03:45:36.766Z,100.00
2023-12-17T03:48:06.480Z,100.00
2023-12-17T03:50:35.922Z,100.00
2023-12-17T03:53:11.551Z,100.00
2023-12-17T03:55:39.014Z,100.00
2023-12-17T03:58:08.581Z,100.00
2023-12-17T04:00:36.979Z,100.00
2023-12-17T04:03:04.301Z,100.00
2023-12-17T04:05:33.614Z,100.00
2023-12-17T04:08:00.581Z,100.00
2023-12-17T04:10:27.669Z,100.00
2023-12-17T04:12:54.894Z,100.00
2023-12-17T04:15:24.796Z,100.00
2023-12-17T04:17:52.150Z,100.00
2023-12-17T04:20:19.418Z,100.00
2023-12-17T04:22:46.444Z,100.00
2023-12-17T04:25:15.722Z,100.00
2023-12-17T04:27:42.976Z,100.00
2023-12-17T04:30:13.192Z,100.00
2023-12-17T04:32:40.399Z,100.00
2023-12-17T04:35:08.143Z,100.00
2023-12-17T04:37:35.107Z,100.00
2023-12-17T04:40:02.429Z,100.00
2023-12-17T04:42:34.636Z,100.00
2023-12-17T04:45:02.975Z,100.00
2023-12-17T04:47:30.164Z,100.00
2023-12-17T04:50:00.271Z,100.00
2023-12-17T04:52:31.396Z,100.00
2023-12-17T04:55:02.237Z,100.00
2023-12-17T04:57:29.317Z,100.00
2023-12-17T05:00:02.653Z,100.00
2023-12-17T05:02:29.846Z,100.00
2023-12-17T05:04:57.002Z,100.00
2023-12-17T05:07:23.980Z,100.00
2023-12-17T05:09:51.043Z,100.00
2023-12-17T05:12:18.015Z,100.00
2023-12-17T05:14:48.014Z,100.00
2023-12-17T05:17:15.208Z,100.00
2023-12-17T05:19:42.277Z,100.00
2023-12-17T05:22:11.501Z,100.00
2023-12-17T05:24:38.645Z,100.00
2023-12-17T05:27:05.788Z,100.00
2023-12-17T05:29:32.912Z,100.00
2023-12-17T05:32:02.474Z,100.00
2023-12-17T05:34:29.858Z,100.00
2023-12-17T05:36:56.805Z,100.00
2023-12-17T05:39:26.777Z,100.00
2023-12-17T05:41:56.237Z,100.00
2023-12-17T05:44:25.752Z,100.00
2023-12-17T05:46:55.356Z,100.00
2023-12-17T05:49:22.477Z,100.00
2023-12-17T05:51:50.492Z,100.00
2023-12-17T05:54:18.876Z,100.00
2023-12-17T05:56:46.123Z,100.00
2023-12-17T05:59:13.133Z,100.00
2023-12-17T06:01:40.294Z,100.00
2023-12-17T06:04:07.317Z,100.00
2023-12-17T06:06:37.407Z,100.00
2023-12-17T06:09:05.049Z,100.00
2023-12-17T06:11:32.257Z,100.00
2023-12-17T06:14:00.008Z,100.00
2023-12-17T06:16:27.170Z,100.00
2023-12-17T06:18:56.902Z,100.00
2023-12-17T06:21:30.610Z,100.00
2023-12-17T06:24:00.449Z,100.00
2023-12-17T06:26:28.058Z,100.00
2023-12-17T06:28:55.398Z,100.00
2023-12-17T06:31:23.188Z,100.00
2023-12-17T06:33:50.562Z,100.00
2023-12-17T06:36:20.698Z,100.00
2023-12-17T06:38:48.966Z,100.00
2023-12-17T06:41:18.554Z,100.00
2023-12-17T06:43:47.622Z,100.00
2023-12-17T06:46:18.004Z,100.00
2023-12-17T06:48:48.074Z,100.00
2023-12-17T06:51:22.302Z,100.00
2023-12-17T06:53:54.788Z,100.00
2023-12-17T06:56:21.921Z,100.00
2023-12-17T06:58:48.860Z,100.00
2023-12-17T07:01:16.152Z,100.00
2023-12-17T07:03:43.509Z,100.00
2023-12-17T07:06:12.721Z,100.00
2023-12-17T07:08:43.049Z,100.00
2023-12-17T07:11:15.167Z,100.00
2023-12-17T07:13:43.150Z,100.00
2023-12-17T07:16:24.701Z,100.00
2023-12-17T07:18:55.325Z,100.00
2023-12-17T07:21:22.805Z,100.00
2023-12-17T07:23:53.064Z,100.00
2023-12-17T07:26:23.160Z,100.00
2023-12-17T07:28:50.495Z,100.00
2023-12-17T07:31:17.514Z,100.00
2023-12-17T07:33:44.901Z,100.00
2023-12-17T07:36:12.110Z,100.00
2023-12-17T07:38:39.032Z,100.00
2023-12-17T07:41:06.236Z,100.00
2023-12-17T07:43:35.743Z,100.00
2023-12-17T07:46:02.964Z,100.00
2023-12-17T07:48:30.089Z,100.00
2023-12-17T07:50:58.302Z,100.00
2023-12-17T07:53:25.609Z,100.00
2023-12-17T07:55:58.292Z,100.00
2023-12-17T07:58:26.342Z,100.00
2023-12-17T08:00:57.214Z,100.00
2023-12-17T08:03:25.401Z,100.00
2023-12-17T08:05:54.095Z,100.00
2023-12-17T08:08:23.972Z,100.00
2023-12-17T08:10:54.099Z,100.00
2023-12-17T08:13:21.022Z,100.00
2023-12-17T08:15:48.175Z,100.00
2023-12-17T08:18:16.293Z,100.00
2023-12-17T08:20:48.820Z,100.00
2023-12-17T08:23:16.067Z,100.00
2023-12-17T08:25:43.764Z,100.00
2023-12-17T08:28:10.986Z,100.00
2023-12-17T08:30:44.273Z,100.00
2023-12-17T08:33:11.494Z,100.00
2023-12-17T08:35:39.199Z,100.00
2023-12-17T08:38:07.470Z,100.00
2023-12-17T08:40:35.199Z,100.00
2023-12-17T08:43:05.777Z,100.00
2023-12-17T08:45:33.322Z,100.00
2023-12-17T08:48:04.141Z,100.00
2023-12-17T08:50:34.599Z,100.00
2023-12-17T08:53:06.593Z,100.00
2023-12-17T08:55:33.557Z,100.00
2023-12-17T08:58:00.620Z,100.00
2023-12-17T09:00:27.713Z,100.00
2023-12-17T09:02:54.836Z,100.00
2023-12-17T09:05:21.816Z,100.00
2023-12-17T09:07:48.984Z,99.95
2023-12-17T09:10:16.041Z,100.00
2023-12-17T09:12:44.130Z,100.00
2023-12-17T09:15:13.618Z,99.86
2023-12-17T09:17:43.805Z,100.00
2023-12-17T09:20:13.068Z,100.00
2023-12-17T09:22:40.193Z,98.91
2023-12-17T09:25:08.012Z,99.87
2023-12-17T09:27:35.256Z,99.63
2023-12-17T09:30:05.053Z,99.71
2023-12-17T09:32:34.922Z,98.14
2023-12-17T09:35:01.868Z,99.01
2023-12-17T09:37:29.044Z,99.73
2023-12-17T09:39:59.027Z,100.00
2023-12-17T09:42:27.441Z,98.78
2023-12-17T09:44:57.605Z,97.82
2023-12-17T09:47:25.079Z,97.08
2023-12-17T09:49:52.136Z,98.16
2023-12-17T09:52:30.127Z,99.02
2023-12-17T09:54:57.342Z,99.18
2023-12-17T09:57:29.536Z,98.77
2023-12-17T09:59:56.781Z,98.02
2023-12-17T10:02:23.697Z,97.99
2023-12-17T10:05:10.989Z,97.92
2023-12-17T10:07:39.779Z,98.83
2023-12-17T10:10:08.412Z,98.45
2023-12-17T10:12:37.958Z,97.94
2023-12-17T10:15:11.081Z,99.19
2023-12-17T10:17:42.170Z,99.71
2023-12-17T10:20:10.108Z,99.55
2023-12-17T10:22:38.061Z,100.00
2023-12-17T10:25:05.866Z,100.00
2023-12-17T10:27:33.616Z,99.55
2023-12-17T10:30:03.270Z,99.84
2023-12-17T10:32:31.118Z,98.62
2023-12-17T10:34:58.776Z,96.73
2023-12-17T10:37:27.660Z,97.00
2023-12-17T10:39:59.348Z,96.32
2023-12-17T10:42:29.208Z,94.04
2023-12-17T10:44:59.335Z,93.27
2023-12-17T10:47:27.494Z,93.99
2023-12-17T10:49:55.468Z,93.35
2023-12-17T10:52:25.762Z,92.86
2023-12-17T10:54:54.089Z,95.10
2023-12-17T10:57:26.361Z,92.85
2023-12-17T10:59:57.634Z,90.73
2023-12-17T11:02:27.437Z,91.02
2023-12-17T11:04:57.842Z,92.94
2023-12-17T11:07:34.900Z,93.74
2023-12-17T11:10:13.010Z,93.21
2023-12-17T11:12:41.510Z,93.10
2023-12-17T11:15:09.153Z,93.70
2023-12-17T11:17:44.137Z,94.93
2023-12-17T11:20:15.674Z,95.26
2023-12-17T11:22:42.747Z,93.92
2023-12-17T11:25:12.274Z,95.26
2023-12-17T11:27:40.706Z,92.59
2023-12-17T11:30:28.622Z,87.39
2023-12-17T11:32:59.590Z,86.68
2023-12-17T11:35:29.740Z,84.28
2023-12-17T11:38:00.195Z,83.66
2023-12-17T11:40:28.890Z,81.49
2023-12-17T11:43:04.708Z,84.63
2023-12-17T11:45:49.407Z,86.29
2023-12-17T11:48:22.208Z,86.49
2023-12-17T11:50:58.227Z,86.76
2023-12-17T11:53:27.457Z,85.13
2023-12-17T11:56:04.596Z,85.23
2023-12-17T11:58:48.599Z,82.03
2023-12-17T12:01:18.336Z,83.00
2023-12-17T12:03:48.096Z,80.86
2023-12-17T12:06:16.498Z,78.41
2023-12-17T12:08:50.599Z,77.17
2023-12-17T12:11:20.768Z,77.69
2023-12-17T12:13:51.791Z,75.57
2023-12-17T12:16:27.367Z,74.81
2023-12-17T12:19:04.835Z,74.13
2023-12-17T12:21:32.767Z,76.39
2023-12-17T12:24:10.721Z,79.94
2023-12-17T12:26:40.095Z,77.23
2023-12-17T12:29:09.394Z,78.28
2023-12-17T12:31:39.109Z,74.79
2023-12-17T12:34:07.706Z,72.91
2023-12-17T12:36:50.009Z,72.96
2023-12-17T12:39:21.285Z,77.84
2023-12-17T12:41:49.894Z,83.53
2023-12-17T12:44:19.060Z,87.47
2023-12-17T12:46:52.341Z,87.79
2023-12-17T12:49:19.976Z,87.99
2023-12-17T12:51:48.468Z,88.95
2023-12-17T12:54:15.785Z,91.55
2023-12-17T12:56:42.931Z,90.66
2023-12-17T12:59:22.674Z,89.98
2023-12-17T13:01:53.389Z,90.18
2023-12-17T13:04:20.751Z,91.81
2023-12-17T13:06:50.954Z,91.03
2023-12-17T13:09:21.632Z,90.75
2023-12-17T13:11:51.356Z,88.83
2023-12-17T13:14:19.008Z,88.96
2023-12-17T13:16:51.340Z,89.05
2023-12-17T13:19:19.999Z,90.59
2023-12-17T13:21:48.079Z,90.97
2023-12-17T13:24:17.742Z,89.21
2023-12-17T13:26:50.070Z,89.95
2023-12-17T13:29:17.220Z,92.01
2023-12-17T13:31:45.254Z,93.63
2023-12-17T13:34:12.592Z,95.63
2023-12-17T13:36:39.737Z,97.06
2023-12-17T13:39:06.915Z,96.07
2023-12-17T13:41:44.789Z,96.60
2023-12-17T13:44:15.475Z,94.67
2023-12-17T13:46:45.460Z,95.11
2023-12-17T13:49:12.558Z,92.81
2023-12-17T13:51:42.099Z,92.72
2023-12-17T13:54:09.167Z,94.00
2023-12-17T13:56:40.920Z,96.00
2023-12-17T13:59:13.814Z,95.52
2023-12-17T14:01:43.729Z,96.04
2023-12-17T14:04:10.794Z,96.64
2023-12-17T14:06:43.507Z,97.07
2023-12-17T14:09:10.697Z,97.30
2023-12-17T14:11:40.555Z,95.60
2023-12-17T14:14:10.284Z,94.74
2023-12-17T14:16:43.389Z,98.52
2023-12-17T14:19:11.704Z,100.00
2023-12-17T14:21:40.028Z,98.78
2023-12-17T14:24:14.626Z,100.00
2023-12-17T14:26:44.393Z,100.00
2023-12-17T14:29:13.636Z,100.00
2023-12-17T14:31:41.414Z,100.00
2023-12-17T14:34:09.828Z,100.00
2023-12-17T14:36:40.240Z,100.00
2023-12-17T14:39:07.657Z,100.00
2023-12-17T14:41:34.717Z,100.00
2023-12-17T14:44:04.895Z,100.00
2023-12-17T14:46:33.417Z,100.00
2023-12-17T14:49:03.069Z,100.00
2023-12-17T14:51:31.999Z,100.00
2023-12-17T14:54:00.740Z,100.00
2023-12-17T14:56:27.966Z,100.00
2023-12-17T14:58:58.162Z,100.00
2023-12-17T15:01:31.833Z,100.00
2023-12-17T15:04:02.855Z,100.00
2023-12-17T15:06:33.017Z,100.00
2023-12-17T15:09:02.663Z,100.00
2023-12-17T15:11:32.407Z,100.00
2023-12-17T15:13:59.358Z,100.00
2023-12-17T15:16:30.197Z,100.00
2023-12-17T15:19:00.304Z,100.00
2023-12-17T15:21:31.409Z,100.00
2023-12-17T15:24:01.747Z,100.00
2023-12-17T15:26:33.994Z,100.00
2023-12-17T15:29:01.060Z,100.00
2023-12-17T15:31:29.870Z,100.00
2023-12-17T15:33:58.876Z,100.00
2023-12-17T15:36:28.003Z,100.00
2023-12-17T15:38:55.320Z,100.00
2023-12-17T15:41:24.767Z,100.00
2023-12-17T15:43:55.525Z,100.00
2023-12-17T15:46:32.049Z,100.00
2023-12-17T15:49:02.366Z,100.00
2023-12-17T15:51:34.529Z,100.00
2023-12-17T15:54:01.984Z,100.00
2023-12-17T15:56:29.098Z,100.00
2023-12-17T15:58:56.266Z,100.00
2023-12-17T16:01:23.503Z,100.00
2023-12-17T16:03:52.890Z,100.00
2023-12-17T16:06:21.633Z,100.00
2023-12-17T16:08:48.775Z,100.00
2023-12-17T16:11:16.136Z,100.00
2023-12-17T16:13:45.583Z,100.00
2023-12-17T16:16:22.001Z,100.00
2023-12-17T16:18:49.574Z,100.00
2023-12-17T16:21:17.699Z,100.00
2023-12-17T16:23:47.633Z,100.00
2023-12-17T16:26:15.020Z,100.00
2023-12-17T16:28:42.169Z,100.00
2023-12-17T16:31:09.425Z,100.00
2023-12-17T16:33:38.907Z,100.00
2023-12-17T16:36:06.229Z,100.00
2023-12-17T16:38:33.242Z,100.00
2023-12-17T16:41:00.321Z,100.00
2023-12-17T16:43:27.301Z,100.00
2023-12-17T16:45:54.387Z,100.00
2023-12-17T16:48:22.313Z,100.00
2023-12-17T16:50:50.234Z,100.00
2023-12-17T16:53:20.373Z,100.00
2023-12-17T16:55:47.446Z,100.00
2023-12-17T16:58:19.532Z,100.00
2023-12-17T17:00:49.804Z,100.00
2023-12-17T17:03:16.995Z,100.00
2023-12-17T17:05:45.084Z,100.00
2023-12-17T17:08:12.035Z,100.00
2023-12-17T17:10:39.213Z,100.00
2023-12-17T17:13:06.348Z,100.00
2023-12-17T17:15:36.590Z,100.00
2023-12-17T17:18:04.193Z,100.00
2023-12-17T17:20:32.098Z,100.00
2023-12-17T17:23:01.299Z,100.00
2023-12-17T17:25:30.893Z,100.00
2023-12-17T17:27:57.951Z,100.00
2023-12-17T17:30:25.139Z,100.00
2023-12-17T17:32:52.494Z,100.00
2023-12-17T17:35:19.742Z,100.00
2023-12-17T17:37:46.727Z,100.00
2023-12-17T17:40:13.902Z,100.00
2023-12-17T17:42:43.217Z,100.00
2023-12-17T17:45:11.027Z,100.00
2023-12-17T17:47:38.138Z,100.00
2023-12-17T17:50:05.625Z,100.00
2023-12-17T17:52:32.679Z,100.00
2023-12-17T17:54:59.754Z,100.00
2023-12-17T17:57:27.138Z,100.00
2023-12-17T17:59:56.653Z,100.00
2023-12-17T18:02:23.586Z,100.00
2023-12-17T18:04:50.848Z,100.00
2023-12-17T18:07:18.982Z,100.00
2023-12-17T18:09:46.804Z,100.00
2023-12-17T18:12:13.752Z,100.00
2023-12-17T18:14:40.963Z,100.00
2023-12-17T18:17:08.307Z,100.00
2023-12-17T18:19:36.405Z,100.00
2023-12-17T18:22:08.699Z,100.00
2023-12-17T18:24:35.677Z,100.00
2023-12-17T18:27:02.850Z,100.00
2023-12-17T18:29:30.577Z,100.00
2023-12-17T18:31:57.873Z,100.00
2023-12-17T18:34:28.539Z,100.00
2023-12-17T18:36:55.822Z,100.00
2023-12-17T18:39:25.632Z,100.00
2023-12-17T18:41:54.993Z,100.00
2023-12-17T18:44:25.091Z,100.00
2023-12-17T18:46:52.001Z,100.00
2023-12-17T18:49:19.263Z,100.00
2023-12-17T18:51:46.703Z,100.00
2023-12-17T18:54:16.837Z,100.00
2023-12-17T18:56:46.983Z,100.00
2023-12-17T18:59:16.459Z,100.00
2023-12-17T19:01:43.376Z,100.00
2023-12-17T19:04:13.496Z,100.00
2023-12-17T19:06:40.719Z,100.00
2023-12-17T19:09:10.100Z,100.00
2023-12-17T19:11:42.084Z,100.00
2023-12-17T19:14:11.561Z,100.00
2023-12-17T19:16:38.596Z,100.00
2023-12-17T19:19:05.672Z,100.00
2023-12-17T19:21:32.815Z,100.00
2023-12-17T19:23:59.771Z,100.00
2023-12-17T19:26:26.985Z,100.00
2023-12-17T19:28:56.397Z,100.00
2023-12-17T19:31:23.363Z,100.00
2023-12-17T19:33:50.720Z,100.00
2023-12-17T19:36:17.923Z,100.00
2023-12-17T19:38:47.334Z,100.00
2023-12-17T19:41:17.499Z,100.00
2023-12-17T19:43:45.192Z,100.00
2023-12-17T19:46:12.712Z,100.00
2023-12-17T19:48:40.439Z,100.00
2023-12-17T19:51:15.036Z,100.00
2023-12-17T19:53:43.761Z,100.00
2023-12-17T19:56:20.327Z,100.00
2023-12-17T19:58:47.921Z,100.00
2023-12-17T20:01:15.771Z,100.00
2023-12-17T20:03:43.187Z,100.00
2023-12-17T20:06:13.329Z,100.00
2023-12-17T20:08:43.440Z,100.00
2023-12-17T20:11:12.959Z,100.00
2023-12-17T20:13:49.683Z,100.00
2023-12-17T20:16:19.800Z,100.00
2023-12-17T20:18:47.892Z,100.00
2023-12-17T20:21:18.528Z,100.00
2023-12-17T20:23:48.498Z,100.00
2023-12-17T20:26:15.973Z,100.00
2023-12-17T20:28:46.505Z,100.00
2023-12-17T20:31:16.065Z,100.00
2023-12-17T20:33:45.770Z,100.00
2023-12-17T20:36:20.516Z,100.00
2023-12-17T20:38:49.705Z,100.00
2023-12-17T20:41:19.336Z,100.00
2023-12-17T20:43:47.296Z,100.00
2023-12-17T20:46:14.314Z,100.00
2023-12-17T20:48:41.450Z,100.00
2023-12-17T20:51:11.102Z,100.00
2023-12-17T20:53:42.815Z,100.00
2023-12-17T20:56:12.721Z,100.00
2023-12-17T20:58:42.572Z,100.00
2023-12-17T21:01:12.550Z,100.00
2023-12-17T21:03:39.747Z,100.00
2023-12-17T21:06:06.904Z,100.00
2023-12-17T21:08:39.117Z,100.00
2023-12-17T21:11:06.130Z,100.00
2023-12-17T21:13:33.301Z,100.00
2023-12-17T21:16:03.804Z,100.00
2023-12-17T21:18:31.341Z,100.00
2023-12-17T21:21:02.379Z,100.00
2023-12-17T21:23:36.462Z,100.00
2023-12-17T21:26:07.968Z,100.00
2023-12-17T21:28:39.040Z,100.00
2023-12-17T21:31:07.065Z,100.00
2023-12-17T21:33:34.642Z,100.00
2023-12-17T21:36:01.783Z,100.00
2023-12-17T21:38:34.755Z,100.00
2023-12-17T21:41:02.789Z,100.00
2023-12-17T21:43:30.519Z,100.00
2023-12-17T21:45:58.483Z,100.00
2023-12-17T21:48:26.885Z,100.00
2023-12-17T21:51:12.793Z,100.00
2023-12-17T21:53:42.648Z,100.00
2023-12-17T21:56:10.432Z,100.00
2023-12-17T21:58:41.988Z,100.00
2023-12-17T22:01:10.661Z,100.00
2023-12-17T22:03:41.154Z,100.00
2023-12-17T22:06:09.910Z,100.00
2023-12-17T22:08:38.970Z,100.00
2023-12-17T22:11:06.147Z,100.00
2023-12-17T22:13:34.130Z,100.00
2023-12-17T22:16:02.101Z,100.00
2023-12-17T22:18:29.735Z,100.00
2023-12-17T22:20:58.240Z,100.00
2023-12-17T22:23:26.885Z,100.00
2023-12-17T22:26:00.064Z,100.00
2023-12-17T22:28:29.141Z,100.00
2023-12-17T22:30:57.056Z,100.00
2023-12-17T22:33:31.083Z,100.00
2023-12-17T22:36:03.657Z,100.00
2023-12-17T22:38:38.725Z,100.00
2023-12-17T22:41:06.821Z,100.00
2023-12-17T22:43:34.741Z,100.00
2023-12-17T22:46:03.720Z,100.00
2023-12-17T22:48:35.697Z,100.00
2023-12-17T22:51:15.797Z,100.00
2023-12-17T22:53:43.063Z,100.00
2023-12-17T22:56:13.067Z,100.00
2023-12-17T22:58:49.810Z,100.00
2023-12-17T23:01:24.286Z,100.00
2023-12-17T23:03:54.711Z,100.00
2023-12-17T23:06:22.292Z,100.00
2023-12-17T23:08:49.895Z,100.00
2023-12-17T23:11:19.109Z,100.00
2023-12-17T23:13:53.577Z,100.00
2023-12-17T23:16:24.414Z,99.93
2023-12-17T23:18:54.249Z,100.00
2023-12-17T23:21:28.571Z,100.00
2023-12-17T23:23:56.251Z,100.00
2023-12-17T23:26:26.103Z,100.00
2023-12-17T23:28:54.354Z,100.00
2023-12-17T23:31:24.609Z,100.00
2023-12-17T23:33:52.285Z,100.00
2023-12-17T23:36:19.756Z,100.00
2023-12-17T23:38:49.377Z,100.00
2023-12-17T23:41:17.558Z,100.00
2023-12-17T23:43:47.721Z,100.00
2023-12-17T23:46:17.902Z,100.00
2023-12-17T23:48:46.295Z,100.00
2023-12-17T23:51:19.266Z,100.00
2023-12-17T23:53:47.270Z,100.00
2023-12-17T23:56:19.662Z,100.00
2023-12-17T23:58:50.673Z,100.00
